createdAt,value
2022-10-15T00:01:37.320Z,13.143616
2022-10-15T00:05:02.471Z,13.19397
2022-10-15T00:08:27.660Z,13.113403
2022-10-15T00:11:52.868Z,13.19397
2022-10-15T00:15:18.046Z,13.173828
2022-10-15T00:18:43.206Z,13.173828
2022-10-15T00:22:08.377Z,13.173828
2022-10-15T00:25:33.552Z,13.153687
2022-10-15T00:28:58.819Z,13.113403
2022-10-15T00:32:24.254Z,13.173828
2022-10-15T00:35:49.093Z,13.153687
2022-10-15T00:39:14.304Z,13.19397
2022-10-15T00:42:39.509Z,13.103333
2022-10-15T00:46:04.712Z,13.083191
2022-10-15T00:49:29.842Z,13.083191
2022-10-15T00:52:55.038Z,13.083191
2022-10-15T00:56:20.185Z,13.032837
2022-10-15T00:59:45.356Z,13.002625
2022-10-15T01:03:10.558Z,12.972412
2022-10-15T01:06:35.722Z,13.042908
2022-10-15T01:10:00.882Z,13.042908
2022-10-15T01:13:26.063Z,13.042908
2022-10-15T01:16:51.237Z,13.07312
2022-10-15T01:20:16.433Z,13.042908
2022-10-15T01:23:41.577Z,12.962341
2022-10-15T01:27:06.744Z,12.972412
2022-10-15T01:30:31.915Z,12.932129
2022-10-15T01:33:57.089Z,12.972412
2022-10-15T01:37:22.661Z,13.002625
2022-10-15T01:40:47.448Z,13.052979
2022-10-15T01:44:12.629Z,13.042908
2022-10-15T01:47:37.799Z,13.042908
2022-10-15T01:51:03.535Z,13.032837
2022-10-15T01:54:28.749Z,13.07312
2022-10-15T01:57:53.922Z,13.07312
2022-10-15T02:01:19.158Z,13.103333
2022-10-15T02:04:44.262Z,13.123474
2022-10-15T02:08:09.457Z,13.103333
2022-10-15T02:11:34.660Z,13.113403
2022-10-15T02:14:59.808Z,13.143616
2022-10-15T02:18:25.020Z,13.153687
2022-10-15T02:21:50.206Z,13.224182
2022-10-15T02:25:15.362Z,13.19397
2022-10-15T02:28:40.622Z,13.143616
2022-10-15T02:32:05.742Z,13.143616
2022-10-15T02:35:30.942Z,13.123474
2022-10-15T02:38:56.121Z,13.103333
2022-10-15T02:42:21.518Z,13.143616
2022-10-15T02:45:46.486Z,13.173828
2022-10-15T02:49:11.638Z,13.204041
2022-10-15T02:52:36.818Z,13.224182
2022-10-15T02:56:01.993Z,13.264465
2022-10-15T02:59:27.157Z,13.284607
2022-10-15T03:02:52.349Z,13.294678
2022-10-15T03:06:19.754Z,13.32489
2022-10-15T03:09:44.928Z,13.355103
2022-10-15T03:13:10.100Z,13.355103
2022-10-15T03:16:35.248Z,13.415527
2022-10-15T03:20:00.423Z,13.415527
2022-10-15T03:23:25.639Z,13.455811
2022-10-15T03:26:50.754Z,13.405457
2022-10-15T03:30:15.936Z,13.405457
2022-10-15T03:33:41.117Z,13.415527
2022-10-15T03:37:06.369Z,13.435669
2022-10-15T03:40:31.542Z,13.435669
2022-10-15T03:43:56.723Z,13.415527
2022-10-15T03:47:21.932Z,13.415527
2022-10-15T03:50:47.115Z,13.435669
2022-10-15T03:54:12.301Z,13.405457
2022-10-15T03:57:37.476Z,13.435669
2022-10-15T04:01:02.718Z,13.475952
2022-10-15T04:04:27.835Z,13.486023
2022-10-15T04:07:53.018Z,13.486023
2022-10-15T04:11:18.239Z,13.536377
2022-10-15T04:14:43.382Z,13.536377
2022-10-15T04:18:08.589Z,13.506165
2022-10-15T04:21:33.782Z,13.455811
2022-10-15T04:24:58.959Z,13.486023
2022-10-15T04:28:24.205Z,13.546448
2022-10-15T04:31:49.321Z,13.536377
2022-10-15T04:35:14.504Z,13.536377
2022-10-15T04:38:39.666Z,13.546448
2022-10-15T04:42:04.859Z,13.566589
2022-10-15T04:45:30.068Z,13.566589
2022-10-15T04:48:55.209Z,13.546448
2022-10-15T04:52:20.436Z,13.566589
2022-10-15T04:55:45.634Z,13.566589
2022-10-15T04:59:10.804Z,13.586731
2022-10-15T05:02:36.136Z,13.596802
2022-10-15T05:06:01.148Z,13.586731
2022-10-15T05:09:26.354Z,13.596802
2022-10-15T05:12:52.798Z,13.586731
2022-10-15T05:16:16.725Z,13.616943
2022-10-15T05:19:41.904Z,13.616943
2022-10-15T05:23:07.074Z,13.596802
2022-10-15T05:26:32.245Z,13.616943
2022-10-15T05:29:57.427Z,13.586731
2022-10-15T05:33:22.586Z,13.627014
2022-10-15T05:36:47.786Z,13.586731
2022-10-15T05:40:13.329Z,13.566589
2022-10-15T05:43:40.321Z,13.546448
2022-10-15T05:47:03.315Z,13.596802
2022-10-15T05:50:28.522Z,13.586731
2022-10-15T05:53:53.754Z,13.596802
2022-10-15T05:57:18.919Z,13.596802
2022-10-15T06:00:44.141Z,13.616943
2022-10-15T06:04:09.350Z,13.616943
2022-10-15T06:07:34.599Z,13.637085
2022-10-15T06:11:00.577Z,13.627014
2022-10-15T06:14:25.008Z,13.657227
2022-10-15T06:17:50.194Z,13.627014
2022-10-15T06:21:15.372Z,13.616943
2022-10-15T06:24:40.539Z,13.616943
2022-10-15T06:28:05.697Z,13.637085
2022-10-15T06:31:30.855Z,13.627014
2022-10-15T06:34:56.063Z,13.657227
2022-10-15T06:38:21.206Z,13.667297
2022-10-15T06:41:46.372Z,13.657227
2022-10-15T06:45:11.599Z,13.657227
2022-10-15T06:48:36.739Z,13.637085
2022-10-15T06:52:03.379Z,13.637085
2022-10-15T06:55:27.212Z,13.637085
2022-10-15T06:58:52.865Z,13.69751
2022-10-15T07:02:18.037Z,13.727722
2022-10-15T07:05:43.179Z,13.768005
2022-10-15T07:09:08.362Z,13.818359
2022-10-15T07:12:33.546Z,13.878784
2022-10-15T07:15:58.731Z,13.908997
2022-10-15T07:19:23.949Z,13.959351
2022-10-15T07:22:49.807Z,13.959351
2022-10-15T07:26:15.025Z,13.959351
2022-10-15T07:29:40.198Z,13.919067
2022-10-15T07:33:05.527Z,13.989563
2022-10-15T07:36:30.743Z,13.999634
2022-10-15T07:39:55.891Z,13.999634
2022-10-15T07:43:21.056Z,14.039917
2022-10-15T07:46:46.240Z,14.039917
2022-10-15T07:50:11.409Z,14.060059
2022-10-15T07:53:36.629Z,14.060059
2022-10-15T07:57:01.791Z,14.100342
2022-10-15T08:00:27.069Z,14.090271
2022-10-15T08:03:52.189Z,14.039917
2022-10-15T08:07:17.350Z,13.989563
2022-10-15T08:10:42.553Z,14.019775
2022-10-15T08:14:07.678Z,14.140625
2022-10-15T08:17:32.826Z,14.150696
2022-10-15T08:20:58.007Z,14.170837
2022-10-15T08:24:23.271Z,14.20105
2022-10-15T08:27:48.488Z,14.20105
2022-10-15T08:31:13.692Z,14.241333
2022-10-15T08:34:38.883Z,14.281616
2022-10-15T08:38:04.104Z,14.281616
2022-10-15T08:41:29.258Z,14.241333
2022-10-15T08:44:54.461Z,14.221191
2022-10-15T08:48:19.623Z,14.211121
2022-10-15T08:51:44.786Z,14.251404
2022-10-15T08:55:09.965Z,14.271545
2022-10-15T08:58:36.930Z,14.33197
2022-10-15T09:02:00.380Z,14.362183
2022-10-15T09:05:25.519Z,14.392395
2022-10-15T09:08:50.730Z,14.422607
2022-10-15T09:12:15.910Z,14.45282
2022-10-15T09:15:41.091Z,14.422607
2022-10-15T09:19:06.319Z,14.33197
2022-10-15T09:22:31.478Z,14.271545
2022-10-15T09:25:56.651Z,14.251404
2022-10-15T09:29:21.859Z,14.352112
2022-10-15T09:32:49.458Z,14.392395
2022-10-15T09:36:12.240Z,14.513245
2022-10-15T09:39:37.399Z,14.603882
2022-10-15T09:43:02.613Z,14.58374
2022-10-15T09:46:27.780Z,14.624023
2022-10-15T09:49:52.938Z,14.694519
2022-10-15T09:53:18.132Z,14.825439
2022-10-15T09:56:43.265Z,14.936218
2022-10-15T10:00:08.456Z,14.95636
2022-10-15T10:03:33.627Z,15.097351
2022-10-15T10:06:58.804Z,15.20813
2022-10-15T10:10:23.999Z,15.288696
2022-10-15T10:13:49.139Z,15.308838
2022-10-15T10:17:14.310Z,15.157776
2022-10-15T10:20:39.471Z,15.187988
2022-10-15T10:24:04.648Z,15.228271
2022-10-15T10:27:29.911Z,15.167847
2022-10-15T10:30:54.982Z,15.268555
2022-10-15T10:34:20.174Z,15.409546
2022-10-15T10:37:45.351Z,15.4599
2022-10-15T10:41:10.513Z,15.429688
2022-10-15T10:44:35.707Z,15.318909
2022-10-15T10:48:00.851Z,15.157776
2022-10-15T10:51:26.024Z,15.08728
2022-10-15T10:54:51.180Z,15.057068
2022-10-15T10:58:16.348Z,14.976501
2022-10-15T11:01:41.529Z,14.906006
2022-10-15T11:05:06.674Z,14.916077
2022-10-15T11:08:31.832Z,15.006714
2022-10-15T11:12:14.365Z,15.097351
2022-10-15T11:16:00.536Z,15.187988
2022-10-15T11:19:50.745Z,15.288696
2022-10-15T11:22:50.854Z,15.409546
2022-10-15T11:26:16.021Z,15.379333
2022-10-15T11:29:41.177Z,15.439758
2022-10-15T11:33:08.411Z,15.510254
2022-10-15T11:36:31.535Z,15.530396
2022-10-15T11:39:56.665Z,15.469971
2022-10-15T11:43:21.817Z,15.439758
2022-10-15T11:46:46.978Z,15.4599
2022-10-15T11:50:12.184Z,15.530396
2022-10-15T11:53:50.813Z,15.530396
2022-10-15T11:57:21.436Z,15.540466
2022-10-15T12:00:46.601Z,15.600891
2022-10-15T12:04:11.793Z,15.560608
2022-10-15T12:07:36.933Z,15.490112
2022-10-15T12:11:02.096Z,15.500183
2022-10-15T12:14:27.212Z,15.540466
2022-10-15T12:17:52.369Z,15.570679
2022-10-15T12:21:17.551Z,15.540466
2022-10-15T12:24:42.841Z,15.621033
2022-10-15T12:28:08.054Z,15.691528
2022-10-15T12:31:37.673Z,15.741882
2022-10-15T12:34:58.442Z,15.822449
2022-10-15T12:38:23.603Z,15.923157
2022-10-15T12:41:48.818Z,15.923157
2022-10-15T12:45:14.038Z,15.892944
2022-10-15T12:48:39.184Z,15.741882
2022-10-15T12:52:04.375Z,15.691528
2022-10-15T12:55:29.554Z,15.721741
2022-10-15T12:58:54.734Z,15.691528
2022-10-15T13:02:19.934Z,15.560608
2022-10-15T13:05:46.094Z,15.570679
2022-10-15T13:09:10.285Z,15.570679
2022-10-15T13:12:35.460Z,15.510254
2022-10-15T13:16:00.627Z,15.530396
2022-10-15T13:19:25.946Z,15.621033
2022-10-15T13:22:55.251Z,15.691528
2022-10-15T13:26:16.342Z,15.671387
2022-10-15T13:29:41.501Z,15.681458
2022-10-15T13:33:06.648Z,15.691528
2022-10-15T13:36:31.846Z,15.721741
2022-10-15T13:39:57.043Z,15.71167
2022-10-15T13:43:22.250Z,15.71167
2022-10-15T13:46:47.448Z,15.751953
2022-10-15T13:50:12.685Z,15.802307
2022-10-15T13:53:37.915Z,15.83252
2022-10-15T13:57:03.099Z,15.892944
2022-10-15T14:00:28.345Z,15.892944
2022-10-15T14:03:53.501Z,15.862732
2022-10-15T14:07:18.806Z,15.862732
2022-10-15T14:10:44.094Z,15.84259
2022-10-15T14:14:09.840Z,15.862732
2022-10-15T14:17:37.697Z,15.802307
2022-10-15T14:21:02.936Z,15.762024
2022-10-15T14:24:28.130Z,15.751953
2022-10-15T14:27:53.319Z,15.71167
2022-10-15T15:04:21.269Z,15.429688
2022-10-15T15:07:46.426Z,15.439758
2022-10-15T15:11:11.642Z,15.469971
2022-10-15T15:14:36.885Z,15.439758
2022-10-15T15:18:02.039Z,15.469971
2022-10-15T15:21:27.230Z,15.4599
2022-10-15T15:24:52.378Z,15.469971
2022-10-15T15:28:17.621Z,15.4599
2022-10-15T15:31:42.726Z,15.469971
2022-10-15T15:35:07.905Z,15.409546
2022-10-15T15:38:33.139Z,15.379333
2022-10-15T15:41:58.232Z,15.379333
2022-10-15T15:45:23.403Z,15.359192
2022-10-15T15:48:48.582Z,15.359192
2022-10-15T15:52:13.739Z,15.33905
2022-10-15T15:55:38.942Z,15.318909
2022-10-15T15:59:04.162Z,15.308838
2022-10-15T16:02:29.326Z,15.248413
2022-10-15T16:05:54.474Z,15.187988
2022-10-15T16:09:19.651Z,15.167847
2022-10-15T16:12:44.876Z,15.157776
2022-10-15T16:16:10.052Z,15.157776
2022-10-15T16:19:35.215Z,15.127563
2022-10-15T16:23:00.396Z,15.127563
2022-10-15T16:26:25.533Z,15.137634
2022-10-15T16:29:50.761Z,15.127563
2022-10-15T16:33:15.853Z,15.127563
2022-10-15T16:36:41.033Z,15.08728
2022-10-15T16:40:06.236Z,15.08728
2022-10-15T16:43:31.387Z,15.006714
2022-10-15T16:46:56.578Z,14.986572
2022-10-15T16:50:21.723Z,14.936218
2022-10-15T16:53:46.885Z,14.906006
2022-10-15T16:57:12.051Z,14.825439
2022-10-15T17:00:37.237Z,14.825439
2022-10-15T17:04:02.465Z,14.805298
2022-10-15T17:07:27.944Z,14.795227
2022-10-15T17:10:52.780Z,14.825439
2022-10-15T17:14:17.945Z,14.885864
2022-10-15T17:17:43.116Z,14.936218
2022-10-15T17:21:08.316Z,14.95636
2022-10-15T17:24:33.481Z,14.976501
2022-10-15T17:27:58.689Z,15.097351
2022-10-15T17:31:23.821Z,15.137634
2022-10-15T17:34:49.019Z,15.127563
2022-10-15T17:38:15.948Z,15.08728
2022-10-15T17:41:39.371Z,15.026855
2022-10-15T17:45:04.544Z,14.95636
2022-10-15T17:48:29.744Z,14.986572
2022-10-15T17:51:54.916Z,14.976501
2022-10-15T17:55:20.191Z,14.936218
2022-10-15T17:58:45.264Z,14.936218
2022-10-15T18:02:10.493Z,14.916077
2022-10-15T18:05:35.650Z,14.916077
2022-10-15T18:09:00.843Z,14.95636
2022-10-15T18:12:26.036Z,14.916077
2022-10-15T18:15:51.168Z,14.936218
2022-10-15T18:19:16.383Z,14.885864
2022-10-15T18:22:41.548Z,14.855652
2022-10-15T18:26:06.717Z,14.805298
2022-10-15T18:29:31.921Z,14.795227
2022-10-15T18:32:58.042Z,14.754944
2022-10-15T18:36:22.224Z,14.754944
2022-10-15T18:39:47.390Z,14.734802
2022-10-15T18:43:14.104Z,14.734802
2022-10-15T18:46:37.783Z,14.694519
2022-10-15T18:50:02.929Z,14.684448
2022-10-15T18:53:28.093Z,14.613953
2022-10-15T18:56:53.272Z,14.654236
2022-10-15T19:00:18.428Z,14.603882
2022-10-15T19:03:43.630Z,14.58374
2022-10-15T19:07:08.800Z,14.58374
2022-10-15T19:10:33.950Z,14.58374
2022-10-15T19:13:59.137Z,14.624023
2022-10-15T19:17:24.305Z,14.644165
2022-10-15T19:20:49.473Z,14.654236
2022-10-15T19:24:14.602Z,14.734802
2022-10-15T19:27:39.849Z,14.70459
2022-10-15T19:31:05.004Z,14.654236
2022-10-15T19:34:30.184Z,14.624023
2022-10-15T19:37:55.410Z,14.684448
2022-10-15T19:41:20.545Z,14.654236
2022-10-15T19:44:45.715Z,14.654236
2022-10-15T19:48:10.911Z,14.644165
2022-10-15T19:51:36.091Z,14.613953
2022-10-15T19:55:01.276Z,14.613953
2022-10-15T19:58:26.412Z,14.624023
2022-10-15T20:01:51.684Z,14.624023
2022-10-15T20:05:16.820Z,14.644165
2022-10-15T20:08:42.028Z,14.654236
2022-10-15T20:12:07.256Z,14.684448
2022-10-15T20:15:32.419Z,14.694519
2022-10-15T20:18:57.600Z,14.734802
2022-10-15T20:22:22.908Z,14.724731
2022-10-15T20:25:47.937Z,14.734802
2022-10-15T20:29:13.130Z,14.734802
2022-10-15T20:32:42.681Z,14.734802
2022-10-15T20:36:07.756Z,14.754944
2022-10-15T20:39:32.921Z,14.805298
2022-10-15T20:42:58.111Z,14.795227
2022-10-15T20:46:23.323Z,14.805298
2022-10-15T20:49:48.467Z,14.795227
2022-10-15T20:53:13.643Z,14.795227
2022-10-15T20:56:38.818Z,14.765015
2022-10-15T21:00:04.000Z,14.805298
2022-10-15T21:03:29.195Z,14.775085
2022-10-15T21:06:54.353Z,14.775085
2022-10-15T21:10:19.507Z,14.775085
2022-10-15T21:13:44.698Z,14.775085
2022-10-15T21:17:09.891Z,14.765015
2022-10-15T21:20:35.114Z,14.765015
2022-10-15T21:24:00.241Z,14.754944
2022-10-15T21:27:25.727Z,14.724731
2022-10-15T21:30:50.598Z,14.734802
2022-10-15T21:34:15.771Z,14.724731
2022-10-15T21:37:40.991Z,14.684448
2022-10-15T21:41:06.158Z,14.684448
2022-10-15T21:44:31.320Z,14.694519
2022-10-15T21:47:56.471Z,14.684448
2022-10-15T21:51:21.629Z,14.684448
2022-10-15T21:54:46.843Z,14.684448
2022-10-15T21:58:11.980Z,14.613953
2022-10-15T22:01:37.165Z,14.58374
2022-10-15T22:05:02.307Z,14.603882
2022-10-15T22:08:27.490Z,14.624023
2022-10-15T22:11:52.702Z,14.644165
2022-10-15T22:15:17.878Z,14.644165
2022-10-15T22:18:43.045Z,14.624023
2022-10-15T22:22:08.196Z,14.603882
2022-10-15T22:25:33.349Z,14.603882
2022-10-15T22:28:58.607Z,14.58374
2022-10-15T22:32:24.008Z,14.58374
2022-10-15T22:35:48.862Z,14.613953
2022-10-15T22:39:14.043Z,14.613953
2022-10-15T22:42:39.240Z,14.613953
2022-10-15T22:46:04.444Z,14.603882
2022-10-15T22:49:29.570Z,14.603882
2022-10-15T22:52:54.745Z,14.553528
2022-10-15T22:56:19.913Z,14.58374
2022-10-15T22:59:45.089Z,14.613953
2022-10-15T23:03:10.299Z,14.654236
2022-10-15T23:06:35.437Z,14.624023
2022-10-15T23:10:00.638Z,14.684448
2022-10-15T23:13:25.826Z,14.624023
2022-10-15T23:16:50.984Z,14.654236
2022-10-15T23:20:16.161Z,14.654236
2022-10-15T23:23:41.333Z,14.694519
2022-10-15T23:27:06.483Z,14.654236
2022-10-15T23:30:31.674Z,14.684448
2022-10-15T23:33:56.861Z,14.624023
2022-10-15T23:37:22.034Z,14.624023
2022-10-15T23:40:47.164Z,14.624023
2022-10-15T23:44:12.312Z,14.613953
2022-10-15T23:47:37.479Z,14.58374
2022-10-15T23:51:03.728Z,14.613953
2022-10-15T23:54:27.869Z,14.613953
2022-10-15T23:57:52.975Z,14.573669
